EZY43DN EGKK-EGJJ
Flight info
| Callsign | EZY43DN |
|---|---|
| Flight time | 0h 33m |
| Altitude | 24000 |
| Route | IMVUR N63 LELNA |
| Aircraft | A320/M-SDE2E3FGHIJ1RWXYZ/LB1 |
Departure
| Time | 2026-05-06 18:15 |
|---|---|
| Airport | London Gatwick Airport (EGKK) |
Arrival
| Time | 2026-05-06 18:49 |
|---|---|
| Airport | Jersey Airport (EGJJ) |
| Time | Latitude | Longitude | Altitude | Speed | Heading |
|---|---|---|---|---|---|
| 2026-05-06 17:21 | 51.15575 | -0.17762 | 209 ft | 0 kts | 347° |
| 2026-05-06 18:00 | 51.15572 | -0.17761 | 205 ft | 3 kts | 347° |
| 2026-05-06 18:00 | 51.15546 | -0.17750 | 205 ft | 4 kts | 338° |
| 2026-05-06 18:01 | 51.15523 | -0.17730 | 215 ft | 4 kts | 315° |
| 2026-05-06 18:01 | 51.15512 | -0.17700 | 211 ft | 2 kts | 261° |
| 2026-05-06 18:01 | 51.15513 | -0.17698 | 211 ft | 0 kts | 260° |
| 2026-05-06 18:04 | 51.15511 | -0.17710 | 208 ft | 3 kts | 260° |
| 2026-05-06 18:04 | 51.15505 | -0.17760 | 205 ft | 11 kts | 258° |
| 2026-05-06 18:04 | 51.15476 | -0.17971 | 210 ft | 21 kts | 257° |
| 2026-05-06 18:04 | 51.15448 | -0.18172 | 213 ft | 17 kts | 259° |
| 2026-05-06 18:05 | 51.15384 | -0.18280 | 205 ft | 14 kts | 177° |
| 2026-05-06 18:05 | 51.15295 | -0.18248 | 211 ft | 12 kts | 167° |
| 2026-05-06 18:05 | 51.15216 | -0.18227 | 212 ft | 11 kts | 184° |
| 2026-05-06 18:05 | 51.15182 | -0.18344 | 210 ft | 15 kts | 259° |
| 2026-05-06 18:06 | 51.15162 | -0.18502 | 210 ft | 14 kts | 258° |
| 2026-05-06 18:06 | 51.15143 | -0.18644 | 211 ft | 13 kts | 258° |
| 2026-05-06 18:06 | 51.15125 | -0.18774 | 209 ft | 12 kts | 258° |
| 2026-05-06 18:06 | 51.15109 | -0.18894 | 209 ft | 12 kts | 258° |
| 2026-05-06 18:07 | 51.15077 | -0.19124 | 209 ft | 27 kts | 257° |
| 2026-05-06 18:07 | 51.14997 | -0.19263 | 210 ft | 15 kts | 167° |
| 2026-05-06 18:07 | 51.14950 | -0.19373 | 212 ft | 20 kts | 255° |
| 2026-05-06 18:07 | 51.14918 | -0.19617 | 207 ft | 21 kts | 257° |
| 2026-05-06 18:08 | 51.14891 | -0.19817 | 210 ft | 18 kts | 257° |
| 2026-05-06 18:08 | 51.14863 | -0.20016 | 205 ft | 19 kts | 257° |
| 2026-05-06 18:08 | 51.14830 | -0.20221 | 208 ft | 19 kts | 256° |
| 2026-05-06 18:08 | 51.14808 | -0.20417 | 207 ft | 17 kts | 258° |
| 2026-05-06 18:09 | 51.14785 | -0.20585 | 213 ft | 15 kts | 258° |
| 2026-05-06 18:09 | 51.14763 | -0.20740 | 209 ft | 14 kts | 257° |
| 2026-05-06 18:09 | 51.14743 | -0.20878 | 207 ft | 12 kts | 257° |
| 2026-05-06 18:09 | 51.14711 | -0.20981 | 208 ft | 10 kts | 210° |
| 2026-05-06 18:10 | 51.14671 | -0.20977 | 205 ft | 8 kts | 164° |
| 2026-05-06 18:10 | 51.14649 | -0.20967 | 209 ft | 0 kts | 163° |
| 2026-05-06 18:14 | 51.14632 | -0.20958 | 206 ft | 11 kts | 162° |
| 2026-05-06 18:14 | 51.14572 | -0.20893 | 208 ft | 10 kts | 123° |
| 2026-05-06 18:15 | 51.14588 | -0.20686 | 212 ft | 43 kts | 78° |
| 2026-05-06 18:15 | 51.14705 | -0.19838 | 208 ft | 110 kts | 78° |
| 2026-05-06 18:15 | 51.14900 | -0.18366 | 265 ft | 155 kts | 77° |
| 2026-05-06 18:15 | 51.15127 | -0.16677 | 935 ft | 156 kts | 76° |
| 2026-05-06 18:16 | 51.15359 | -0.14988 | 1681 ft | 159 kts | 74° |
| 2026-05-06 18:16 | 51.15617 | -0.13158 | 2071 ft | 180 kts | 73° |
| 2026-05-06 18:16 | 51.15910 | -0.11079 | 2407 ft | 205 kts | 75° |
| 2026-05-06 18:16 | 51.16235 | -0.08750 | 2901 ft | 224 kts | 75° |
| 2026-05-06 18:17 | 51.16693 | -0.06365 | 3086 ft | 225 kts | 54° |
| 2026-05-06 18:17 | 51.17917 | -0.04947 | 3936 ft | 222 kts | 12° |
| 2026-05-06 18:17 | 51.19459 | -0.04895 | 4836 ft | 224 kts | 351° |
| 2026-05-06 18:17 | 51.20996 | -0.05379 | 5697 ft | 227 kts | 343° |
| 2026-05-06 18:18 | 51.22308 | -0.06714 | 6521 ft | 230 kts | 307° |
| 2026-05-06 18:18 | 51.22869 | -0.09153 | 7075 ft | 250 kts | 273° |
| 2026-05-06 18:18 | 51.22717 | -0.12042 | 7584 ft | 269 kts | 263° |
| 2026-05-06 18:18 | 51.22373 | -0.15012 | 8376 ft | 275 kts | 260° |
| 2026-05-06 18:19 | 51.21972 | -0.18023 | 9242 ft | 280 kts | 259° |
| 2026-05-06 18:19 | 51.21559 | -0.21086 | 10087 ft | 284 kts | 260° |
| 2026-05-06 18:19 | 51.21155 | -0.24186 | 10888 ft | 287 kts | 261° |
| 2026-05-06 18:19 | 51.20761 | -0.27329 | 11702 ft | 290 kts | 261° |
| 2026-05-06 18:20 | 51.20378 | -0.30501 | 12508 ft | 293 kts | 261° |
| 2026-05-06 18:20 | 51.20001 | -0.33705 | 13324 ft | 296 kts | 261° |
| 2026-05-06 18:20 | 51.19612 | -0.36950 | 14077 ft | 299 kts | 260° |
| 2026-05-06 18:20 | 51.19195 | -0.40219 | 14791 ft | 302 kts | 259° |
| 2026-05-06 18:21 | 51.18765 | -0.43503 | 15497 ft | 304 kts | 259° |
| 2026-05-06 18:21 | 51.18326 | -0.46817 | 16207 ft | 307 kts | 259° |
| 2026-05-06 18:21 | 51.17881 | -0.50167 | 16905 ft | 310 kts | 259° |
| 2026-05-06 18:21 | 51.17371 | -0.53518 | 17587 ft | 314 kts | 252° |
| 2026-05-06 18:22 | 51.16544 | -0.56851 | 17788 ft | 334 kts | 248° |
| 2026-05-06 18:22 | 51.15616 | -0.60353 | 17982 ft | 350 kts | 248° |
| 2026-05-06 18:22 | 51.14646 | -0.63962 | 18479 ft | 357 kts | 248° |
| 2026-05-06 18:22 | 51.13661 | -0.67607 | 19018 ft | 361 kts | 248° |
| 2026-05-06 18:23 | 51.12666 | -0.71292 | 19581 ft | 364 kts | 248° |
| 2026-05-06 18:23 | 51.11664 | -0.75011 | 20153 ft | 366 kts | 248° |
| 2026-05-06 18:23 | 51.10662 | -0.78744 | 20725 ft | 369 kts | 248° |
| 2026-05-06 18:23 | 51.09654 | -0.82509 | 21273 ft | 372 kts | 248° |
| 2026-05-06 18:24 | 51.08636 | -0.86304 | 21820 ft | 374 kts | 248° |
| 2026-05-06 18:24 | 51.07609 | -0.90119 | 22356 ft | 377 kts | 248° |
| 2026-05-06 18:24 | 51.06588 | -0.93901 | 22879 ft | 379 kts | 248° |
| 2026-05-06 18:24 | 51.05527 | -0.97821 | 23424 ft | 382 kts | 248° |
| 2026-05-06 18:25 | 51.04488 | -1.01655 | 23845 ft | 384 kts | 248° |
| 2026-05-06 18:25 | 51.03431 | -1.05554 | 23972 ft | 383 kts | 248° |
| 2026-05-06 18:25 | 51.02397 | -1.09361 | 23998 ft | 367 kts | 248° |
| 2026-05-06 18:25 | 51.01389 | -1.13052 | 24001 ft | 362 kts | 247° |
| 2026-05-06 18:26 | 51.00374 | -1.16764 | 24001 ft | 375 kts | 247° |
| 2026-05-06 18:26 | 50.99315 | -1.20639 | 24004 ft | 391 kts | 247° |
| 2026-05-06 18:26 | 50.98217 | -1.24668 | 24005 ft | 405 kts | 247° |
| 2026-05-06 18:26 | 50.97067 | -1.28831 | 24002 ft | 419 kts | 245° |
| 2026-05-06 18:27 | 50.95478 | -1.32777 | 24004 ft | 432 kts | 231° |
| 2026-05-06 18:27 | 50.93276 | -1.36050 | 24003 ft | 439 kts | 217° |
| 2026-05-06 18:27 | 50.90613 | -1.38474 | 24000 ft | 442 kts | 208° |
| 2026-05-06 18:27 | 50.87866 | -1.40671 | 24002 ft | 443 kts | 208° |
| 2026-05-06 18:28 | 50.85116 | -1.42853 | 24000 ft | 443 kts | 208° |
| 2026-05-06 18:28 | 50.82353 | -1.45041 | 23999 ft | 443 kts | 208° |
| 2026-05-06 18:28 | 50.79596 | -1.47224 | 23997 ft | 443 kts | 208° |
| 2026-05-06 18:28 | 50.76835 | -1.49409 | 23995 ft | 443 kts | 208° |
| 2026-05-06 18:29 | 50.74080 | -1.51588 | 23996 ft | 443 kts | 208° |
| 2026-05-06 18:29 | 50.71325 | -1.53768 | 23994 ft | 443 kts | 208° |
| 2026-05-06 18:29 | 50.68574 | -1.55943 | 23993 ft | 443 kts | 208° |
| 2026-05-06 18:29 | 50.65805 | -1.58132 | 23991 ft | 448 kts | 208° |
| 2026-05-06 18:30 | 50.63001 | -1.60348 | 23986 ft | 453 kts | 208° |
| 2026-05-06 18:30 | 50.60169 | -1.62587 | 23996 ft | 456 kts | 208° |
| 2026-05-06 18:30 | 50.57335 | -1.64824 | 23991 ft | 456 kts | 208° |
| 2026-05-06 18:30 | 50.54492 | -1.67061 | 23991 ft | 457 kts | 208° |
| 2026-05-06 18:31 | 50.51648 | -1.69292 | 23991 ft | 457 kts | 208° |
| 2026-05-06 18:31 | 50.48806 | -1.71515 | 23991 ft | 457 kts | 208° |
| 2026-05-06 18:31 | 50.45965 | -1.73734 | 23991 ft | 457 kts | 208° |
| 2026-05-06 18:31 | 50.43115 | -1.75959 | 23991 ft | 457 kts | 208° |
| 2026-05-06 18:32 | 50.40275 | -1.78177 | 23986 ft | 457 kts | 208° |
| 2026-05-06 18:32 | 50.37431 | -1.80399 | 23983 ft | 457 kts | 208° |
| 2026-05-06 18:32 | 50.34589 | -1.82618 | 23981 ft | 457 kts | 208° |
| 2026-05-06 18:32 | 50.31745 | -1.84836 | 23980 ft | 457 kts | 208° |
| 2026-05-06 18:33 | 50.28897 | -1.87050 | 23983 ft | 457 kts | 208° |
| 2026-05-06 18:33 | 50.26046 | -1.89259 | 23984 ft | 457 kts | 207° |
| 2026-05-06 18:33 | 50.23219 | -1.91446 | 23988 ft | 446 kts | 207° |
| 2026-05-06 18:33 | 50.20511 | -1.93533 | 23994 ft | 423 kts | 208° |
| 2026-05-06 18:34 | 50.17935 | -1.95516 | 23993 ft | 403 kts | 208° |
| 2026-05-06 18:34 | 50.15484 | -1.97401 | 23993 ft | 384 kts | 208° |
| 2026-05-06 18:34 | 50.13131 | -1.99209 | 24000 ft | 373 kts | 208° |
| 2026-05-06 18:34 | 50.10815 | -2.00995 | 24001 ft | 371 kts | 208° |
| 2026-05-06 18:35 | 50.08518 | -2.02767 | 23829 ft | 364 kts | 208° |
| 2026-05-06 18:35 | 50.06276 | -2.04488 | 23595 ft | 355 kts | 208° |
| 2026-05-06 18:35 | 50.04074 | -2.06175 | 23168 ft | 351 kts | 208° |
| 2026-05-06 18:35 | 50.01892 | -2.07848 | 22714 ft | 348 kts | 208° |
| 2026-05-06 18:36 | 49.99725 | -2.09510 | 22272 ft | 346 kts | 208° |
| 2026-05-06 18:36 | 49.97498 | -2.10879 | 21846 ft | 345 kts | 197° |
| 2026-05-06 18:36 | 49.95163 | -2.11711 | 21414 ft | 343 kts | 194° |
| 2026-05-06 18:36 | 49.92840 | -2.12501 | 20953 ft | 341 kts | 194° |
| 2026-05-06 18:37 | 49.90524 | -2.13288 | 20510 ft | 340 kts | 194° |
| 2026-05-06 18:37 | 49.88990 | -2.13809 | 20125 ft | 341 kts | 194° |
| 2026-05-06 18:37 | 49.85806 | -2.14897 | 18946 ft | 359 kts | 194° |
| 2026-05-06 18:37 | 49.83393 | -2.15724 | 18364 ft | 351 kts | 194° |
| 2026-05-06 18:38 | 49.81026 | -2.16533 | 17560 ft | 346 kts | 194° |
| 2026-05-06 18:38 | 49.78690 | -2.17341 | 16758 ft | 342 kts | 194° |
| 2026-05-06 18:38 | 49.76450 | -2.18193 | 15992 ft | 338 kts | 195° |
| 2026-05-06 18:38 | 49.74167 | -2.19119 | 15211 ft | 335 kts | 196° |
| 2026-05-06 18:39 | 49.71889 | -2.20070 | 14476 ft | 332 kts | 196° |
| 2026-05-06 18:39 | 49.69675 | -2.20998 | 13761 ft | 329 kts | 196° |
| 2026-05-06 18:39 | 49.67475 | -2.21919 | 12972 ft | 326 kts | 196° |
| 2026-05-06 18:40 | 49.63175 | -2.23692 | 11513 ft | 318 kts | 196° |
| 2026-05-06 18:40 | 49.61050 | -2.24552 | 10809 ft | 314 kts | 196° |
| 2026-05-06 18:40 | 49.58954 | -2.25400 | 10125 ft | 310 kts | 196° |
| 2026-05-06 18:40 | 49.56893 | -2.26235 | 9619 ft | 299 kts | 197° |
| 2026-05-06 18:41 | 49.54918 | -2.27035 | 9094 ft | 289 kts | 197° |
| 2026-05-06 18:41 | 49.52995 | -2.27818 | 8450 ft | 285 kts | 196° |
| 2026-05-06 18:41 | 49.51092 | -2.28595 | 7789 ft | 282 kts | 196° |
| 2026-05-06 18:41 | 49.49203 | -2.29364 | 7134 ft | 279 kts | 196° |
| 2026-05-06 18:42 | 49.47351 | -2.30115 | 6724 ft | 273 kts | 196° |
| 2026-05-06 18:42 | 49.45537 | -2.30849 | 6392 ft | 269 kts | 196° |
| 2026-05-06 18:42 | 49.43728 | -2.31577 | 5975 ft | 269 kts | 196° |
| 2026-05-06 18:42 | 49.41894 | -2.32314 | 5539 ft | 268 kts | 195° |
| 2026-05-06 18:43 | 49.40124 | -2.33027 | 5117 ft | 267 kts | 196° |
| 2026-05-06 18:43 | 49.38322 | -2.33755 | 4688 ft | 267 kts | 195° |
| 2026-05-06 18:43 | 49.36532 | -2.34475 | 4245 ft | 266 kts | 195° |
| 2026-05-06 18:43 | 49.34746 | -2.35190 | 3808 ft | 265 kts | 195° |
| 2026-05-06 18:44 | 49.32957 | -2.35907 | 3357 ft | 265 kts | 194° |
| 2026-05-06 18:44 | 49.31178 | -2.36620 | 2907 ft | 264 kts | 194° |
| 2026-05-06 18:44 | 49.29412 | -2.37329 | 2590 ft | 258 kts | 194° |
| 2026-05-06 18:44 | 49.27723 | -2.38009 | 2516 ft | 243 kts | 194° |
| 2026-05-06 18:45 | 49.26126 | -2.38651 | 2408 ft | 232 kts | 194° |
| 2026-05-06 18:45 | 49.24606 | -2.39262 | 2330 ft | 219 kts | 193° |
| 2026-05-06 18:45 | 49.23178 | -2.39836 | 2272 ft | 207 kts | 193° |
| 2026-05-06 18:45 | 49.22240 | -2.40210 | 2242 ft | 207 kts | 192° |
| 2026-05-06 18:46 | 49.20417 | -2.39941 | 2154 ft | 197 kts | 147° |
| 2026-05-06 18:46 | 49.19524 | -2.38446 | 2064 ft | 190 kts | 111° |
| 2026-05-06 18:46 | 49.19360 | -2.36485 | 2002 ft | 187 kts | 82° |
| 2026-05-06 18:46 | 49.19534 | -2.34486 | 1998 ft | 189 kts | 82° |
| 2026-05-06 18:47 | 49.19701 | -2.32548 | 1866 ft | 181 kts | 82° |
| 2026-05-06 18:47 | 49.19859 | -2.30684 | 1658 ft | 172 kts | 83° |
| 2026-05-06 18:47 | 49.20009 | -2.28910 | 1405 ft | 159 kts | 82° |
| 2026-05-06 18:47 | 49.20146 | -2.27288 | 1188 ft | 149 kts | 83° |
| 2026-05-06 18:48 | 49.20273 | -2.25780 | 996 ft | 138 kts | 83° |
| 2026-05-06 18:48 | 49.20398 | -2.24368 | 811 ft | 134 kts | 82° |
| 2026-05-06 18:48 | 49.20511 | -2.22964 | 631 ft | 132 kts | 83° |
| 2026-05-06 18:48 | 49.20630 | -2.21559 | 431 ft | 132 kts | 82° |
| 2026-05-06 18:49 | 49.20747 | -2.20176 | 285 ft | 126 kts | 82° |
| 2026-05-06 18:49 | 49.20828 | -2.19193 | 286 ft | 57 kts | 83° |
| 2026-05-06 18:49 | 49.20860 | -2.18815 | 283 ft | 22 kts | 82° |
| 2026-05-06 18:49 | 49.20879 | -2.18582 | 287 ft | 21 kts | 83° |
| 2026-05-06 18:50 | 49.20856 | -2.18389 | 282 ft | 14 kts | 148° |
| 2026-05-06 18:50 | 49.20775 | -2.18413 | 288 ft | 11 kts | 215° |
| 2026-05-06 18:50 | 49.20734 | -2.18502 | 284 ft | 10 kts | 256° |
| 2026-05-06 18:50 | 49.20720 | -2.18664 | 287 ft | 20 kts | 264° |
| 2026-05-06 18:51 | 49.20709 | -2.18805 | 284 ft | 21 kts | 262° |
| 2026-05-06 18:51 | 49.20681 | -2.19116 | 284 ft | 22 kts | 262° |
| 2026-05-06 18:51 | 49.20697 | -2.19327 | 284 ft | 20 kts | 285° |
| 2026-05-06 18:51 | 49.20555 | -2.19753 | 287 ft | 0 kts | 173° |